Ravenna, Nebraska
Current Conditions -  °F | °C
As of 9:15 AM on Wednesday 26 Nov 2014 (Local Time) from KEAR Reporting Station
Overcast Overcast  
Wind Chill: 14°   Ceiling: 2100
Heat Index: 28°   Visibility: 10mi
Dew Point: 19°   Wind: 23mph
Humidity: 69%   Direction: 310°NW
Pressure: 30.16"   Gusts: 38mph
Location:  41.03°N, 98.91°W
Report Text: KEAR 261515Z 31020G33KT 10SM BKN021 OVC029 M02/M07 A3016 RMK AO1
Loading
Personal Weather Stations






























Interactive Weather Map New forecast layout! Learn more

10-Day Weather Forecast

Advertisements
Track Severe Weather on mobile